Time;durP1;ratioP1;P1;durP2;ratioP2;P2;SDS_P1;SDS_P2;PMS_P1;PMS_P2;Temp;Humidity;BMP_temperature;BMP_pressure;BME280_temperature;BME280_humidity;BME280_pressure;Samples;Min_cycle;Max_cycle;Signal;HPM_P1;HPM_P2
2023/10/16 00:01:38;;;;;;;1.95;1.00;;;22.60;53.60;;;;;;5039493;28;20017;-68
2023/10/16 00:04:05;;;;;;;1.60;1.10;;;22.60;53.60;;;;;;5040032;28;20021;-68
2023/10/16 00:06:30;;;;;;;1.52;0.80;;;22.60;53.60;;;;;;5041631;28;20025;-67
2023/10/16 00:09:15;;;;;;;2.45;1.20;;;22.60;53.60;;;;;;5041871;28;20036;-67
2023/10/16 00:11:41;;;;;;;1.83;1.00;;;22.60;53.60;;;;;;5042463;28;20060;-68
2023/10/16 00:14:19;;;;;;;1.27;0.90;;;22.50;53.50;;;;;;5040296;28;20029;-68
2023/10/16 00:16:45;;;;;;;1.00;0.80;;;22.50;53.60;;;;;;5041994;28;20028;-68
2023/10/16 00:19:11;;;;;;;1.52;0.93;;;22.50;53.60;;;;;;5037388;28;20022;-68
2023/10/16 00:21:43;;;;;;;1.45;0.90;;;22.50;53.60;;;;;;5039361;28;20032;-68
2023/10/16 00:24:12;;;;;;;1.83;1.08;;;22.50;53.60;;;;;;5043772;28;20028;-69
2023/10/16 00:26:48;;;;;;;1.40;0.90;;;22.50;53.60;;;;;;5040939;28;20045;-68
2023/10/16 00:29:24;;;;;;;1.60;0.93;;;22.50;53.60;;;;;;5041839;28;20515;-68
2023/10/16 00:31:58;;;;;;;1.77;1.00;;;22.50;53.60;;;;;;5038834;28;20035;-67
2023/10/16 00:34:24;;;;;;;1.83;0.90;;;22.50;53.60;;;;;;5039875;28;20531;-67
2023/10/16 00:36:54;;;;;;;1.13;0.85;;;22.50;53.70;;;;;;5041081;28;20037;-69
2023/10/16 00:39:20;;;;;;;1.00;0.90;;;22.50;53.70;;;;;;5039010;28;20359;-67
2023/10/16 00:41:46;;;;;;;2.00;1.05;;;22.50;53.70;;;;;;5042499;28;20432;-62
2023/10/16 00:44:17;;;;;;;1.27;0.80;;;22.40;53.60;;;;;;5039954;28;20022;-64
2023/10/16 00:46:48;;;;;;;1.50;1.00;;;22.40;53.60;;;;;;5041081;28;20373;-64
2023/10/16 00:49:18;;;;;;;2.38;0.98;;;22.40;54.10;;;;;;5041158;28;20099;-65
2023/10/16 00:51:45;;;;;;;1.40;0.80;;;22.40;53.70;;;;;;5046825;28;20071;-62
2023/10/16 00:54:18;;;;;;;1.60;0.90;;;22.40;53.70;;;;;;5038591;28;20033;-63
2023/10/16 00:56:47;;;;;;;1.15;0.80;;;22.40;53.70;;;;;;5041758;28;20048;-62
2023/10/16 00:59:18;;;;;;;1.13;0.80;;;22.40;53.70;;;;;;5048038;28;20021;-64
2023/10/16 01:01:45;;;;;;;1.23;0.88;;;22.40;53.70;;;;;;5040219;28;20034;-64
2023/10/16 01:04:11;;;;;;;1.40;0.80;;;22.30;53.70;;;;;;5040077;28;20033;-62
2023/10/16 01:06:37;;;;;;;1.33;0.93;;;22.30;53.70;;;;;;5040110;28;20027;-62
2023/10/16 01:09:17;;;;;;;1.75;0.90;;;22.40;53.80;;;;;;5038147;28;20100;-64
2023/10/16 01:11:43;;;;;;;1.77;0.80;;;22.40;53.80;;;;;;5041246;28;20465;-64
2023/10/16 01:14:12;;;;;;;1.50;0.90;;;22.30;53.70;;;;;;5038698;28;20029;-62
2023/10/16 01:16:38;;;;;;;1.08;0.75;;;22.30;53.70;;;;;;5039686;28;20028;-63
2023/10/16 01:19:06;;;;;;;1.52;0.93;;;22.30;53.70;;;;;;5039251;28;20026;-62
2023/10/16 01:21:32;;;;;;;1.23;0.80;;;22.30;53.80;;;;;;5039976;28;20025;-63
2023/10/16 01:24:03;;;;;;;1.48;0.80;;;22.30;53.80;;;;;;5039825;28;20052;-63
2023/10/16 01:26:31;;;;;;;1.15;0.80;;;22.30;53.80;;;;;;5039767;28;20473;-62
2023/10/16 01:28:57;;;;;;;0.93;0.80;;;22.30;53.80;;;;;;5040565;28;20029;-62
2023/10/16 01:31:23;;;;;;;1.17;0.80;;;22.30;53.80;;;;;;5041442;28;20036;-63
2023/10/16 01:33:51;;;;;;;1.77;1.00;;;22.30;53.80;;;;;;5039081;28;20029;-62
2023/10/16 01:36:17;;;;;;;1.63;0.80;;;22.20;53.70;;;;;;5035917;28;20393;-61
2023/10/16 01:38:42;;;;;;;0.88;0.63;;;22.20;53.70;;;;;;5039009;28;20117;-62
2023/10/16 01:41:15;;;;;;;1.52;0.90;;;22.20;53.70;;;;;;5038687;28;20378;-61
2023/10/16 01:43:43;;;;;;;1.20;0.80;;;22.20;53.80;;;;;;5040854;28;20034;-62
2023/10/16 01:46:13;;;;;;;0.77;0.70;;;22.20;53.80;;;;;;5038722;28;20033;-63
2023/10/16 01:48:46;;;;;;;1.25;0.80;;;22.20;53.80;;;;;;5039149;28;20099;-63
2023/10/16 01:51:19;;;;;;;1.38;0.90;;;22.20;53.80;;;;;;5036804;28;20481;-63
2023/10/16 01:53:47;;;;;;;1.95;0.95;;;22.20;53.80;;;;;;5038966;28;20037;-62
2023/10/16 01:56:13;;;;;;;0.98;0.73;;;22.20;53.80;;;;;;5037751;28;20032;-61
2023/10/16 01:58:46;;;;;;;0.93;0.73;;;22.20;53.80;;;;;;5039091;28;20021;-61
2023/10/16 02:01:14;;;;;;;1.27;0.82;;;22.10;53.70;;;;;;5040269;28;20021;-66
2023/10/16 02:03:45;;;;;;;0.90;0.70;;;22.20;53.80;;;;;;5038379;28;20056;-67
2023/10/16 02:06:12;;;;;;;1.33;0.80;;;22.10;53.70;;;;;;5036154;28;20034;-67
2023/10/16 02:08:43;;;;;;;1.55;0.88;;;22.10;53.70;;;;;;5038931;28;20449;-67
2023/10/16 02:11:10;;;;;;;1.15;0.80;;;22.10;53.80;;;;;;5039055;28;20032;-61
2023/10/16 02:13:37;;;;;;;1.15;0.80;;;22.10;53.80;;;;;;5038241;28;20033;-62
2023/10/16 02:16:06;;;;;;;1.00;0.80;;;22.10;53.70;;;;;;5039323;28;20025;-63
2023/10/16 02:18:40;;;;;;;1.80;0.70;;;22.10;53.70;;;;;;5040143;28;20021;-62
2023/10/16 02:21:12;;;;;;;1.75;0.80;;;22.10;53.80;;;;;;5036841;28;20021;-63
2023/10/16 02:23:45;;;;;;;1.67;0.80;;;22.10;53.80;;;;;;5038984;28;20504;-62
2023/10/16 02:26:11;;;;;;;1.30;0.80;;;22.10;53.70;;;;;;5041094;28;20074;-62
2023/10/16 02:28:40;;;;;;;1.02;0.70;;;22.10;53.80;;;;;;5038870;28;20033;-63
2023/10/16 02:31:15;;;;;;;1.17;0.80;;;22.10;53.80;;;;;;5037701;28;20049;-62
2023/10/16 02:33:50;;;;;;;1.60;0.80;;;22.10;53.80;;;;;;5039213;28;20533;-62
2023/10/16 02:36:16;;;;;;;1.25;0.70;;;22.10;53.80;;;;;;5037797;28;20043;-63
2023/10/16 02:38:44;;;;;;;1.23;0.80;;;22.00;53.80;;;;;;5036974;28;20542;-63
2023/10/16 02:41:10;;;;;;;1.58;0.90;;;22.00;53.80;;;;;;5036758;28;20028;-63
2023/10/16 02:43:41;;;;;;;1.02;0.80;;;22.00;53.80;;;;;;5036894;28;20522;-63
2023/10/16 02:46:11;;;;;;;1.52;0.90;;;22.00;53.80;;;;;;5041230;28;20230;-64
2023/10/16 02:48:37;;;;;;;;;;;22.00;53.80;;;;;;5038104;28;20110;-63
2023/10/16 02:51:02;;;;;;;1.33;0.70;;;22.00;53.80;;;;;;5037823;28;19923;-63
2023/10/16 02:53:33;;;;;;;1.20;0.80;;;22.00;53.80;;;;;;5036772;28;20041;-62
2023/10/16 02:56:08;;;;;;;1.23;0.70;;;22.00;53.80;;;;;;5040099;28;20021;-64
2023/10/16 02:58:54;;;;;;;1.05;0.70;;;22.00;53.80;;;;;;5037039;28;20107;-63
2023/10/16 03:01:21;;;;;;;1.73;0.80;;;22.00;53.80;;;;;;5037264;28;20428;-63
2023/10/16 03:03:47;;;;;;;1.27;0.80;;;21.90;53.80;;;;;;5037657;28;20392;-63
2023/10/16 03:06:14;;;;;;;1.40;0.80;;;21.90;53.80;;;;;;5035886;28;20462;-63
2023/10/16 03:08:39;;;;;;;0.98;0.60;;;21.90;53.80;;;;;;5038608;28;20095;-63
2023/10/16 03:11:13;;;;;;;0.77;0.60;;;21.90;53.80;;;;;;5036849;28;20369;-68
2023/10/16 03:13:39;;;;;;;1.00;0.70;;;22.00;53.80;;;;;;5037296;28;20029;-68
2023/10/16 03:16:15;;;;;;;1.27;0.70;;;21.90;53.80;;;;;;5039136;28;20112;-68
2023/10/16 03:18:47;;;;;;;0.68;0.52;;;21.90;54.30;;;;;;5038157;28;20504;-68
2023/10/16 03:23:44;;;;;;;0.90;0.70;;;21.90;53.80;;;;;;5038438;28;20401;-68
2023/10/16 03:26:25;;;;;;;1.00;0.70;;;21.90;53.80;;;;;;5038168;28;20499;-68
2023/10/16 03:28:56;;;;;;;0.68;0.60;;;21.90;53.80;;;;;;5039128;28;20052;-69
2023/10/16 03:31:23;;;;;;;0.75;0.60;;;21.90;53.80;;;;;;5036141;28;20057;-69
2023/10/16 03:33:49;;;;;;;0.70;0.70;;;21.90;53.80;;;;;;5039948;28;20369;-69
2023/10/16 03:36:15;;;;;;;0.77;0.70;;;21.90;53.80;;;;;;5039666;28;20025;-68
2023/10/16 03:38:41;;;;;;;0.70;0.52;;;21.90;53.80;;;;;;5040903;28;20427;-68
2023/10/16 03:43:56;;;;;;;1.20;0.70;;;21.80;53.80;;;;;;5043593;28;20474;-69
2023/10/16 03:46:26;;;;;;;0.80;0.60;;;21.80;53.80;;;;;;5039854;28;20030;-68
2023/10/16 03:48:52;;;;;;;1.05;0.70;;;21.80;53.80;;;;;;5041444;28;20616;-68
2023/10/16 03:51:18;;;;;;;1.08;0.63;;;21.80;53.80;;;;;;5038755;28;20234;-68
2023/10/16 03:53:44;;;;;;;1.23;0.70;;;21.80;53.90;;;;;;5042865;28;20076;-68
2023/10/16 03:56:13;;;;;;;0.95;0.80;;;21.80;53.90;;;;;;5040767;28;20078;-68
2023/10/16 03:58:43;;;;;;;;;;;21.80;53.90;;;;;;5040583;28;20495;-68
2023/10/16 04:01:11;;;;;;;0.95;0.65;;;21.80;53.80;;;;;;5041125;28;19905;-68
2023/10/16 04:03:47;;;;;;;0.95;0.70;;;21.80;53.80;;;;;;5040613;28;20021;-69
2023/10/16 04:06:13;;;;;;;0.82;0.57;;;21.80;53.80;;;;;;5038788;28;20029;-68
2023/10/16 04:08:39;;;;;;;0.90;0.70;;;21.70;53.80;;;;;;5041323;28;20041;-68
2023/10/16 04:11:07;;;;;;;0.90;0.63;;;21.70;53.80;;;;;;5042170;28;20025;-66
2023/10/16 04:13:33;;;;;;;0.73;0.60;;;21.70;53.80;;;;;;5072569;28;20029;-65
2023/10/16 04:18:33;;;;;;;1.10;0.80;;;21.80;53.80;;;;;;5043053;28;20017;-66
2023/10/16 04:31:44;;;;;;;0.85;0.60;;;21.70;53.80;;;;;;5038700;28;20498;-64
2023/10/16 04:34:24;;;;;;;1.20;0.63;;;21.70;53.80;;;;;;5039717;28;20043;-64
2023/10/16 04:36:54;;;;;;;1.30;0.68;;;21.70;53.90;;;;;;5041926;28;20048;-64
2023/10/16 04:45:00;;;;;;;0.93;0.70;;;21.60;53.80;;;;;;5041126;28;20091;-63
2023/10/16 04:47:28;;;;;;;1.02;0.70;;;21.60;53.90;;;;;;5042148;28;20079;-63
2023/10/16 04:50:06;;;;;;;0.70;0.57;;;21.70;53.90;;;;;;5041287;28;20444;-64
2023/10/16 04:55:52;;;;;;;0.50;0.50;;;21.60;53.90;;;;;;5040506;28;20135;-63
2023/10/16 05:01:17;;;;;;;1.13;0.70;;;21.70;53.90;;;;;;5040299;28;20025;-64
2023/10/16 05:11:57;;;;;;;0.80;0.70;;;21.60;54.00;;;;;;5042290;28;20086;-64
2023/10/16 05:14:28;;;;;;;1.02;0.60;;;21.60;54.30;;;;;;5039005;28;20033;-63
2023/10/16 05:19:45;;;;;;;1.48;0.80;;;21.70;54.20;;;;;;5038808;28;20028;-63
2023/10/16 06:14:17;;;;;;;1.45;0.80;;;22.90;51.60;;;;;;5039984;28;20397;-69
2023/10/16 06:16:50;;;;;;;1.70;1.08;;;22.90;51.60;;;;;;5037794;28;20025;-68
2023/10/16 06:19:17;;;;;;;1.48;0.80;;;22.90;51.60;;;;;;5039233;28;20037;-69
2023/10/16 06:22:06;;;;;;;1.35;0.80;;;22.90;51.50;;;;;;5038770;28;20059;-68
2023/10/16 06:24:35;;;;;;;1.58;0.95;;;22.90;51.50;;;;;;5039163;28;20036;-68
2023/10/16 06:27:08;;;;;;;;;;;22.90;51.50;;;;;;5038605;28;20029;-68
2023/10/16 06:29:34;;;;;;;1.40;0.77;;;22.90;51.60;;;;;;5037505;28;20264;-68
2023/10/16 06:32:06;;;;;;;1.55;0.80;;;22.90;51.50;;;;;;5038517;28;20036;-65
2023/10/16 06:34:33;;;;;;;1.63;0.90;;;22.90;51.50;;;;;;5068554;28;20025;-65
2023/10/16 06:37:05;;;;;;;1.73;0.70;;;22.90;51.60;;;;;;5039312;28;20032;-66
2023/10/16 06:39:35;;;;;;;2.78;0.80;;;22.90;51.70;;;;;;5054949;28;20025;-65
2023/10/16 06:42:02;;;;;;;1.25;0.80;;;22.80;51.60;;;;;;5038743;28;20116;-65
2023/10/16 06:44:28;;;;;;;2.53;0.90;;;22.80;51.70;;;;;;5037339;28;20160;-65
2023/10/16 06:47:01;;;;;;;5.45;1.13;;;22.80;51.70;;;;;;5035887;28;20032;-66
2023/10/16 06:49:37;;;;;;;1.90;1.00;;;22.80;51.70;;;;;;5038699;28;20044;-66
2023/10/16 06:52:04;;;;;;;1.75;0.80;;;22.80;51.70;;;;;;5037930;28;20033;-67
2023/10/16 06:54:31;;;;;;;1.67;0.90;;;22.80;51.70;;;;;;5038639;28;20423;-68
2023/10/16 06:57:04;;;;;;;2.58;1.17;;;22.70;51.70;;;;;;5038521;28;20130;-68
2023/10/16 06:59:31;;;;;;;1.85;1.00;;;22.80;51.70;;;;;;5039268;28;20140;-68
2023/10/16 07:01:56;;;;;;;2.00;0.90;;;22.80;51.90;;;;;;5037673;28;20048;-68
2023/10/16 07:04:22;;;;;;;2.55;0.88;;;22.80;51.90;;;;;;5036647;28;20041;-68
2023/10/16 07:06:48;;;;;;;4.63;1.10;;;22.70;51.80;;;;;;5039480;28;20063;-67
2023/10/16 07:09:16;;;;;;;2.47;1.10;;;22.70;51.80;;;;;;5037892;28;20033;-68
2023/10/16 07:11:42;;;;;;;2.42;1.10;;;22.70;52.00;;;;;;5042738;28;20029;-68
2023/10/16 07:14:12;;;;;;;3.10;1.00;;;22.80;52.00;;;;;;5041366;28;20401;-68
2023/10/16 07:16:40;;;;;;;2.60;1.10;;;22.70;52.00;;;;;;5043199;28;20456;-68
2023/10/16 07:19:07;;;;;;;3.97;1.23;;;22.70;51.90;;;;;;5041189;28;20104;-68
2023/10/16 07:21:33;;;;;;;2.17;0.90;;;22.70;52.00;;;;;;5042804;28;20819;-68
2023/10/16 07:23:59;;;;;;;2.55;1.00;;;22.70;52.00;;;;;;5042399;28;20045;-68
2023/10/16 07:26:26;;;;;;;1.90;1.00;;;22.70;51.90;;;;;;5039836;28;20029;-68
2023/10/16 07:28:51;;;;;;;1.75;1.00;;;22.70;52.00;;;;;;5041443;28;20036;-68
2023/10/16 07:31:18;;;;;;;1.80;0.98;;;22.70;52.00;;;;;;5041163;28;20029;-67
2023/10/16 07:33:53;;;;;;;1.63;0.90;;;22.70;52.00;;;;;;5041350;28;20033;-68
2023/10/16 07:36:18;;;;;;;2.25;1.00;;;22.70;52.00;;;;;;5057447;28;20116;-68
2023/10/16 07:38:49;;;;;;;3.17;1.23;;;22.70;52.00;;;;;;5040538;28;20109;-69
2023/10/16 07:41:18;;;;;;;2.75;1.00;;;22.70;52.20;;;;;;5040755;28;20017;-68
2023/10/16 07:43:46;;;;;;;1.77;0.93;;;22.70;52.20;;;;;;5042815;28;20030;-71
2023/10/16 07:48:51;;;;;;;3.45;1.67;;;22.70;52.20;;;;;;5041435;28;20052;-70
2023/10/16 07:51:20;;;;;;;1.65;1.10;;;22.70;52.10;;;;;;5041388;28;20025;-71
2023/10/16 07:53:48;;;;;;;3.78;1.25;;;22.70;52.10;;;;;;5041540;28;20037;-70
2023/10/16 07:58:51;;;;;;;1.85;0.90;;;22.70;52.10;;;;;;5050021;28;20495;-71
2023/10/16 08:01:17;;;;;;;2.90;0.90;;;22.70;52.10;;;;;;5052934;28;20024;-70
2023/10/16 08:03:46;;;;;;;2.03;0.98;;;22.70;52.20;;;;;;5041137;28;20060;-66
2023/10/16 08:06:17;;;;;;;2.67;1.20;;;22.70;52.10;;;;;;5041990;28;20029;-65
2023/10/16 08:08:49;;;;;;;5.07;1.10;;;22.70;52.20;;;;;;5039134;28;20065;-65
2023/10/16 08:11:19;;;;;;;3.67;1.40;;;22.70;52.20;;;;;;5040586;28;20477;-65
2023/10/16 08:13:48;;;;;;;2.67;1.10;;;22.70;52.30;;;;;;5039786;28;20436;-66
2023/10/16 08:16:18;;;;;;;3.25;1.10;;;22.70;52.30;;;;;;5048440;28;20043;-65
2023/10/16 08:18:48;;;;;;;3.05;0.90;;;22.70;52.30;;;;;;5041094;28;20365;-65
2023/10/16 08:21:26;;;;;;;2.63;1.27;;;22.70;52.30;;;;;;5042268;28;20396;-66
2023/10/16 08:23:57;;;;;;;3.90;1.15;;;22.70;52.40;;;;;;5039854;28;20387;-65
2023/10/16 08:26:30;;;;;;;3.92;1.13;;;22.70;52.30;;;;;;5041054;28;20029;-65
2023/10/16 08:29:11;;;;;;;2.65;1.20;;;22.70;52.30;;;;;;5039481;28;20385;-66
2023/10/16 08:31:43;;;;;;;3.28;1.10;;;22.70;52.20;;;;;;5041630;28;20051;-66
2023/10/16 08:34:11;;;;;;;1.83;1.08;;;22.70;52.20;;;;;;5039752;28;20564;-64
2023/10/16 08:36:36;;;;;;;4.38;1.10;;;22.70;52.20;;;;;;5040020;28;20022;-65
2023/10/16 08:39:08;;;;;;;3.17;1.10;;;22.70;52.20;;;;;;5040002;28;20036;-65
2023/10/16 08:41:42;;;;;;;1.80;1.02;;;22.70;52.30;;;;;;5038679;28;20049;-66
2023/10/16 08:44:15;;;;;;;4.38;1.00;;;22.70;52.30;;;;;;5042240;28;20014;-65
2023/10/16 08:49:23;;;;;;;3.25;1.05;;;22.70;52.40;;;;;;5040981;28;20128;-65
2023/10/16 08:51:54;;;;;;;3.72;1.13;;;22.70;52.40;;;;;;5040429;28;20025;-67
2023/10/16 08:54:45;;;;;;;2.33;1.10;;;22.70;52.40;;;;;;5039186;28;20048;-68
2023/10/16 08:57:12;;;;;;;2.90;1.08;;;22.70;52.40;;;;;;5041307;28;20048;-67
2023/10/16 08:59:38;;;;;;;2.33;1.00;;;22.70;52.40;;;;;;5041060;28;20017;-68
2023/10/16 09:02:11;;;;;;;2.05;1.08;;;22.70;52.40;;;;;;5040225;28;20025;-67
2023/10/16 09:04:40;;;;;;;2.13;0.90;;;22.60;52.50;;;;;;5040070;28;20512;-68
2023/10/16 09:07:07;;;;;;;5.72;1.17;;;22.70;52.50;;;;;;5040011;28;20060;-68
2023/10/16 09:09:32;;;;;;;1.77;0.90;;;22.60;52.40;;;;;;5039077;28;20033;-68
2023/10/16 09:12:10;;;;;;;1.75;0.98;;;22.70;52.50;;;;;;5038774;28;20489;-68
2023/10/16 09:14:40;;;;;;;2.15;0.93;;;22.70;52.40;;;;;;5041721;28;20064;-66
2023/10/16 09:17:07;;;;;;;2.05;1.00;;;22.60;52.40;;;;;;5039007;28;20029;-65
2023/10/16 09:19:45;;;;;;;1.65;0.98;;;22.70;52.50;;;;;;5037753;28;20043;-65
2023/10/16 09:22:13;;;;;;;2.58;1.20;;;22.60;52.40;;;;;;5038860;28;20033;-65
2023/10/16 09:24:44;;;;;;;3.03;1.17;;;22.60;52.40;;;;;;5036902;28;20032;-64
2023/10/16 09:27:16;;;;;;;2.00;1.10;;;22.60;52.40;;;;;;5041339;28;20039;-64
2023/10/16 09:29:53;;;;;;;2.55;1.10;;;22.60;52.40;;;;;;5037340;28;20025;-65
2023/10/16 09:32:25;;;;;;;2.17;1.08;;;22.60;52.50;;;;;;5038171;28;20032;-64
2023/10/16 09:34:52;;;;;;;2.95;1.08;;;22.60;52.40;;;;;;5037606;28;20451;-64
2023/10/16 09:37:23;;;;;;;3.15;1.00;;;22.60;52.50;;;;;;5039901;28;20029;-64
2023/10/16 09:39:52;;;;;;;2.28;1.05;;;22.60;52.50;;;;;;5039014;28;20028;-65
2023/10/16 09:42:24;;;;;;;2.85;1.10;;;22.60;52.50;;;;;;5073559;28;20041;-65
2023/10/16 09:45:06;;;;;;;2.33;0.98;;;22.60;52.50;;;;;;5041695;28;20033;-64
2023/10/16 09:47:35;;;;;;;1.98;1.00;;;22.60;52.50;;;;;;5038875;28;20125;-65
2023/10/16 09:50:16;;;;;;;2.13;1.10;;;22.60;52.50;;;;;;5039924;28;20499;-65
2023/10/16 09:52:45;;;;;;;2.10;1.10;;;22.60;52.50;;;;;;5038692;28;20022;-65
2023/10/16 09:55:12;;;;;;;2.50;1.00;;;22.60;52.40;;;;;;5037149;28;20026;-65
2023/10/16 09:57:59;;;;;;;2.33;1.20;;;22.60;52.50;;;;;;5041010;28;20022;-64
2023/10/16 10:03:09;;;;;;;2.47;1.23;;;22.60;52.50;;;;;;5037731;28;20033;-67
2023/10/16 10:06:08;;;;;;;2.28;1.00;;;22.60;52.40;;;;;;5038961;28;20029;-67
2023/10/16 10:08:53;;;;;;;;;;;22.60;52.40;;;;;;5038554;28;20024;-68
2023/10/16 10:11:37;;;;;;;2.80;1.23;;;22.60;52.40;;;;;;5037048;28;20199;-68
2023/10/16 10:14:26;;;;;;;2.40;1.05;;;22.60;52.40;;;;;;5039804;28;20032;-69
2023/10/16 10:16:57;;;;;;;2.55;1.10;;;22.60;52.40;;;;;;5038557;28;20029;-68
2023/10/16 10:19:39;;;;;;;1.80;0.90;;;22.60;52.40;;;;;;5037932;28;20018;-68
2023/10/16 10:22:22;;;;;;;2.08;1.02;;;22.60;52.40;;;;;;5039074;28;20086;-68
2023/10/16 10:25:08;;;;;;;3.00;1.02;;;22.60;52.40;;;;;;5036199;28;20425;-64
2023/10/16 10:27:41;;;;;;;2.20;1.08;;;22.60;52.50;;;;;;5037808;28;20063;-64
2023/10/16 10:30:10;;;;;;;2.05;1.10;;;22.60;52.40;;;;;;5037903;28;20021;-64
2023/10/16 10:32:37;;;;;;;2.80;1.25;;;22.60;52.40;;;;;;5039498;28;20031;-64
2023/10/16 10:35:26;;;;;;;2.78;1.20;;;22.60;52.40;;;;;;5039717;28;20029;-65
2023/10/16 10:38:07;;;;;;;3.10;1.40;;;22.60;52.40;;;;;;5037862;28;20536;-64
2023/10/16 10:40:35;;;;;;;4.10;1.20;;;22.60;52.40;;;;;;5037332;28;20028;-65
2023/10/16 10:43:03;;;;;;;3.47;1.20;;;22.60;52.40;;;;;;5037081;28;20869;-65
2023/10/16 10:45:45;;;;;;;2.08;1.10;;;22.60;52.40;;;;;;5038256;28;20531;-65
2023/10/16 10:48:10;;;;;;;2.60;1.30;;;22.60;52.30;;;;;;5038792;28;20138;-65
2023/10/16 10:50:39;;;;;;;2.40;1.30;;;22.60;52.20;;;;;;5037544;28;20025;-65
2023/10/16 10:53:15;;;;;;;2.20;1.05;;;22.60;52.30;;;;;;5038396;28;20108;-65
2023/10/16 10:55:52;;;;;;;2.47;0.93;;;22.60;52.30;;;;;;5035478;28;20045;-65
2023/10/16 10:58:20;;;;;;;2.92;1.15;;;22.60;52.40;;;;;;5039144;28;20493;-65
2023/10/16 11:01:01;;;;;;;3.67;1.00;;;22.60;52.40;;;;;;5038344;28;20025;-65
2023/10/16 11:03:34;;;;;;;3.15;1.27;;;22.60;52.40;;;;;;5038026;28;20028;-64
2023/10/16 11:06:00;;;;;;;4.10;1.50;;;22.60;52.30;;;;;;5039896;28;20132;-64
2023/10/16 11:08:30;;;;;;;3.58;1.15;;;22.60;52.70;;;;;;5037724;28;20109;-63
2023/10/16 11:10:56;;;;;;;3.70;1.20;;;22.60;52.40;;;;;;5036270;28;20036;-63
2023/10/16 11:13:22;;;;;;;3.15;1.27;;;22.60;52.80;;;;;;5038649;28;20033;-62
2023/10/16 11:15:52;;;;;;;2.15;0.93;;;22.60;52.30;;;;;;5037808;28;20025;-60
2023/10/16 11:18:18;;;;;;;3.00;1.20;;;22.60;52.20;;;;;;5038278;28;20060;-62
2023/10/16 11:20:47;;;;;;;3.55;1.30;;;22.60;52.20;;;;;;5037074;28;20473;-62
2023/10/16 11:23:13;;;;;;;3.85;1.30;;;22.60;52.20;;;;;;5038801;28;20029;-62
2023/10/16 11:25:44;;;;;;;4.78;1.67;;;22.60;52.20;;;;;;5036508;28;20513;-60
2023/10/16 11:28:15;;;;;;;4.28;1.67;;;22.60;52.20;;;;;;5038207;28;20032;-62
2023/10/16 11:30:41;;;;;;;6.95;2.08;;;22.60;52.20;;;;;;5037952;28;20033;-61
2023/10/16 11:33:09;;;;;;;3.60;1.42;;;22.60;52.20;;;;;;5038305;28;20113;-66
2023/10/16 11:35:35;;;;;;;6.75;1.98;;;22.60;52.20;;;;;;5037204;28;20519;-67
2023/10/16 11:38:19;;;;;;;5.15;1.80;;;22.60;52.20;;;;;;5037756;28;20037;-65
2023/10/16 11:40:47;;;;;;;5.18;1.80;;;22.60;52.20;;;;;;5036335;28;20485;-67
2023/10/16 11:43:14;;;;;;;4.88;1.73;;;22.60;52.20;;;;;;5039376;28;20100;-67
2023/10/16 11:45:41;;;;;;;5.65;1.92;;;22.60;52.20;;;;;;5038727;28;20037;-67
2023/10/16 11:50:58;;;;;;;6.47;2.03;;;22.60;52.30;;;;;;5038418;28;20246;-67
2023/10/16 11:53:25;;;;;;;6.50;1.88;;;22.60;52.30;;;;;;5037270;28;20473;-67
2023/10/16 11:55:51;;;;;;;6.38;2.00;;;22.60;52.30;;;;;;5036452;28;20047;-66
2023/10/16 11:58:17;;;;;;;5.35;2.05;;;22.60;52.30;;;;;;5047331;28;20025;-67
2023/10/16 12:00:54;;;;;;;5.20;1.77;;;22.60;52.40;;;;;;5043317;28;20465;-66
2023/10/16 12:03:23;;;;;;;7.00;2.63;;;22.60;52.40;;;;;;5039573;28;20032;-67
2023/10/16 12:05:50;;;;;;;5.72;1.90;;;22.60;52.40;;;;;;5040366;28;20035;-67
2023/10/16 12:08:18;;;;;;;5.57;1.90;;;22.60;52.50;;;;;;5041517;28;20552;-67
2023/10/16 12:10:46;;;;;;;6.30;1.95;;;22.60;52.50;;;;;;5043722;28;20078;-66
2023/10/16 12:13:13;;;;;;;4.60;1.90;;;22.60;52.50;;;;;;5043056;28;20493;-67
2023/10/16 12:15:43;;;;;;;5.45;2.00;;;22.60;52.40;;;;;;5038881;28;20108;-67
2023/10/16 12:18:09;;;;;;;5.18;1.90;;;22.60;52.40;;;;;;5040349;28;20044;-67
2023/10/16 12:20:37;;;;;;;4.00;1.92;;;22.60;52.50;;;;;;5038975;28;20470;-66
2023/10/16 12:23:04;;;;;;;8.05;2.03;;;22.60;52.50;;;;;;5041607;28;20026;-67
2023/10/16 12:25:30;;;;;;;4.57;1.75;;;22.60;52.50;;;;;;5039917;28;20088;-68
2023/10/16 12:27:55;;;;;;;5.65;2.03;;;22.60;52.60;;;;;;5040196;28;20041;-67
2023/10/16 12:30:22;;;;;;;5.28;1.60;;;22.60;52.60;;;;;;5041643;28;20025;-67
2023/10/16 12:32:49;;;;;;;5.15;2.00;;;22.60;52.60;;;;;;5040030;28;20021;-68
2023/10/16 12:35:18;;;;;;;7.78;2.35;;;22.60;52.60;;;;;;5039409;28;20029;-67
2023/10/16 12:37:44;;;;;;;4.93;1.85;;;22.60;52.50;;;;;;5038660;28;20021;-67
2023/10/16 12:40:33;;;;;;;5.10;2.00;;;22.70;52.60;;;;;;5040962;28;20025;-67
2023/10/16 12:42:59;;;;;;;;;;;22.70;52.70;;;;;;5042233;28;20028;-67
2023/10/16 12:45:25;;;;;;;4.97;2.00;;;22.70;52.60;;;;;;5041878;28;19909;-67
2023/10/16 12:47:54;;;;;;;6.07;1.95;;;22.80;52.50;;;;;;5071217;28;20171;-67
2023/10/16 12:50:24;;;;;;;6.28;2.00;;;22.80;52.40;;;;;;5038263;28;20064;-66
2023/10/16 12:52:55;;;;;;;4.78;1.85;;;22.80;52.40;;;;;;5040172;28;20114;-67
2023/10/16 12:55:22;;;;;;;5.65;1.90;;;22.80;52.40;;;;;;5037738;28;20029;-68
2023/10/16 12:57:49;;;;;;;3.80;1.73;;;22.90;52.50;;;;;;5043835;28;20039;-66
2023/10/16 13:00:16;;;;;;;5.60;1.83;;;22.90;52.50;;;;;;5040211;28;20021;-68
2023/10/16 13:02:43;;;;;;;4.18;1.60;;;22.90;52.40;;;;;;5039712;28;20087;-67
2023/10/16 13:05:13;;;;;;;5.13;1.77;;;22.90;52.30;;;;;;5044538;28;20420;-67
2023/10/16 13:07:43;;;;;;;4.18;1.52;;;22.90;52.40;;;;;;5039290;28;20083;-67
2023/10/16 13:10:14;;;;;;;4.22;1.70;;;22.90;52.40;;;;;;5039571;28;20033;-68
2023/10/16 13:12:42;;;;;;;5.85;2.05;;;23.00;52.50;;;;;;5045687;28;20026;-66
2023/10/16 13:15:16;;;;;;;4.00;1.45;;;23.10;52.50;;;;;;5037729;28;20488;-66
2023/10/16 13:17:48;;;;;;;4.50;1.70;;;23.00;52.40;;;;;;5041140;28;20037;-67
2023/10/16 13:20:17;;;;;;;3.53;1.60;;;23.00;52.30;;;;;;5037507;28;20549;-66
2023/10/16 13:22:52;;;;;;;4.43;1.50;;;23.10;52.30;;;;;;5039597;28;20034;-66
2023/10/16 13:25:22;;;;;;;3.63;1.45;;;23.10;52.30;;;;;;5039217;28;20045;-67
2023/10/16 13:27:48;;;;;;;4.97;1.58;;;23.10;52.30;;;;;;5038377;28;20467;-66
2023/10/16 13:30:16;;;;;;;3.63;1.60;;;23.10;52.20;;;;;;5039639;28;20041;-67
2023/10/16 13:32:46;;;;;;;5.13;1.87;;;23.10;52.20;;;;;;5038547;28;20041;-60
2023/10/16 13:35:12;;;;;;;;;;;23.10;52.20;;;;;;5039508;28;20295;-60
2023/10/16 13:37:50;;;;;;;4.65;1.60;;;23.00;52.20;;;;;;5039402;28;19916;-61
2023/10/16 13:40:20;;;;;;;4.35;1.65;;;23.10;52.20;;;;;;5037409;28;20021;-61
2023/10/16 13:42:54;;;;;;;6.25;1.80;;;23.00;52.10;;;;;;5037947;28;20079;-60
2023/10/16 13:45:21;;;;;;;5.03;1.90;;;23.00;52.20;;;;;;5039401;28;20033;-60
2023/10/16 13:47:49;;;;;;;5.68;1.88;;;23.00;52.20;;;;;;5038283;28;20033;-59
2023/10/16 13:50:25;;;;;;;5.60;2.00;;;23.00;52.20;;;;;;5038609;28;20041;-61
2023/10/16 13:52:52;;;;;;;5.72;2.30;;;23.00;52.20;;;;;;5039926;28;20079;-66
2023/10/16 13:55:21;;;;;;;7.15;2.25;;;23.00;52.20;;;;;;5037377;28;20036;-65
2023/10/16 13:57:49;;;;;;;4.78;2.30;;;23.00;52.20;;;;;;5037773;28;20050;-65
2023/10/16 14:00:35;;;;;;;4.15;2.40;;;23.00;52.20;;;;;;5039269;28;20044;-66
2023/10/16 14:03:09;;;;;;;5.03;2.35;;;23.00;52.30;;;;;;5037651;28;20040;-66
2023/10/16 14:05:50;;;;;;;7.57;3.00;;;23.00;52.30;;;;;;5039029;28;20036;-66
2023/10/16 14:08:21;;;;;;;6.32;2.58;;;23.00;52.30;;;;;;5037648;28;20052;-66
2023/10/16 14:10:52;;;;;;;5.50;2.35;;;22.90;52.30;;;;;;5038222;28;20533;-66
2023/10/16 14:13:18;;;;;;;5.55;2.40;;;23.00;52.30;;;;;;5039845;28;20082;-66
2023/10/16 14:15:50;;;;;;;5.88;2.55;;;22.90;52.30;;;;;;5038425;28;20401;-66
2023/10/16 14:18:21;;;;;;;6.85;2.80;;;22.90;52.30;;;;;;5038162;28;20055;-67
2023/10/16 14:20:48;;;;;;;6.65;2.80;;;22.90;52.30;;;;;;5038341;28;20055;-66
2023/10/16 14:23:15;;;;;;;6.25;2.80;;;22.90;52.30;;;;;;5037814;28;20017;-67
2023/10/16 14:25:57;;;;;;;6.28;3.33;;;22.90;52.30;;;;;;5038173;28;20056;-66
2023/10/16 14:28:40;;;;;;;5.88;2.90;;;22.90;52.30;;;;;;5040262;28;20059;-66
2023/10/16 14:31:09;;;;;;;5.30;2.70;;;22.90;52.30;;;;;;5037129;28;20473;-65
2023/10/16 14:33:39;;;;;;;6.05;2.50;;;22.90;52.40;;;;;;5038616;28;20029;-66
2023/10/16 14:36:16;;;;;;;;;;;22.80;52.30;;;;;;5039620;28;20025;-66
2023/10/16 14:38:43;;;;;;;6.00;2.75;;;22.80;52.30;;;;;;5038891;28;19909;-66
2023/10/16 14:41:13;;;;;;;6.53;2.70;;;22.80;52.30;;;;;;5034898;28;20036;-66
2023/10/16 14:43:39;;;;;;;5.78;2.92;;;22.80;52.30;;;;;;5038910;28;20304;-66
2023/10/16 14:46:12;;;;;;;7.25;3.08;;;22.70;52.40;;;;;;5039276;28;20108;-66
2023/10/16 14:48:42;;;;;;;6.80;3.22;;;22.80;52.40;;;;;;5037092;28;20485;-66
2023/10/16 14:51:12;;;;;;;8.18;2.80;;;22.70;52.40;;;;;;5036752;28;20036;-67